Time;durP1;ratioP1;P1;durP2;ratioP2;P2;SDS_P1;SDS_P2;PMS_P1;PMS_P2;Temp;Humidity;BMP_temperature;BMP_pressure;BME280_temperature;BME280_humidity;BME280_pressure;Samples;Min_cycle;Max_cycle;Signal;HPM_P1;HPM_P2
2022/01/19 00:01:38;;;;;;;33.20;15.50;;;;;-4.80;98845.60;;;;111748;1241;41138;-58
2022/01/19 00:04:08;;;;;;;33.90;15.30;;;;;-4.98;98843.00;;;;111741;1241;41230;-60
2022/01/19 00:06:37;;;;;;;38.50;16.20;;;;;-5.10;98846.60;;;;111683;1239;41253;-60
2022/01/19 00:09:07;;;;;;;31.60;15.50;;;;;-5.30;98873.00;;;;111706;1241;41141;-60
2022/01/19 00:11:36;;;;;;;26.20;11.70;;;;;-5.40;98879.00;;;;111805;1241;41460;-60
2022/01/19 00:14:05;;;;;;;26.10;11.90;;;;;-5.52;98874.60;;;;111798;1241;41136;-60
2022/01/19 00:16:35;;;;;;;26.80;11.50;;;;;-5.60;98883.80;;;;111675;1241;42234;-58
2022/01/19 00:19:05;;;;;;;27.50;12.40;;;;;-5.68;98896.20;;;;111670;1241;41189;-58
2022/01/19 00:21:34;;;;;;;24.60;11.30;;;;;-5.70;98900.00;;;;111460;1243;41273;-60
2022/01/19 00:24:04;;;;;;;23.60;9.50;;;;;-5.72;98902.20;;;;111747;1242;42158;-58
2022/01/19 00:26:36;;;;;;;19.90;9.30;;;;;-5.80;98898.80;;;;111673;1242;42487;-57
2022/01/19 00:29:05;;;;;;;22.10;9.20;;;;;-5.90;98903.20;;;;111738;1241;41264;-60
2022/01/19 00:31:35;;;;;;;19.70;8.30;;;;;-5.90;98909.80;;;;111678;1241;41671;-61
2022/01/19 00:34:04;;;;;;;19.60;8.40;;;;;-5.98;98924.80;;;;111659;1241;41146;-60
2022/01/19 00:36:34;;;;;;;18.40;8.00;;;;;-6.00;98928.40;;;;111469;1242;41127;-61
2022/01/19 00:39:04;;;;;;;18.00;7.60;;;;;-5.90;98938.40;;;;111551;1242;41137;-60
2022/01/19 00:41:34;;;;;;;17.20;7.50;;;;;-5.90;98938.40;;;;111465;1243;41619;-62
2022/01/19 00:44:04;;;;;;;17.70;7.90;;;;;-5.90;98937.40;;;;111708;1242;41178;-59
2022/01/19 00:46:35;;;;;;;;;;;;;-5.90;98942.20;;;;111794;1242;42346;-62
2022/01/19 00:49:05;;;;;;;19.50;8.00;;;;;-5.88;98950.20;;;;111752;1242;41246;-60
2022/01/19 00:51:35;;;;;;;18.90;8.10;;;;;-5.80;98950.20;;;;111712;1241;41702;-63
2022/01/19 00:54:04;;;;;;;18.40;8.10;;;;;-5.80;98948.80;;;;111521;1241;41887;-58
2022/01/19 00:56:35;;;;;;;24.50;9.50;;;;;-5.80;98953.80;;;;111774;1241;41845;-60
2022/01/19 00:59:05;;;;;;;16.90;7.70;;;;;-5.84;98954.80;;;;111770;1241;41741;-60
2022/01/19 01:01:35;;;;;;;;;;;;;-5.90;98944.20;;;;111774;1241;41717;-59
2022/01/19 01:04:06;;;;;;;15.00;7.30;;;;;-5.90;98941.40;;;;111517;1244;41305;-59
2022/01/19 01:06:36;;;;;;;13.60;6.60;;;;;-5.96;98940.40;;;;111519;1243;41414;-59
2022/01/19 01:09:06;;;;;;;14.80;7.10;;;;;-6.00;98939.60;;;;111662;1241;41256;-60
2022/01/19 01:11:37;;;;;;;18.80;8.00;;;;;-6.00;98941.20;;;;111779;1243;41253;-60
2022/01/19 01:16:39;;;;;;;18.20;7.60;;;;;-6.10;98940.00;;;;111729;1243;41250;-62
2022/01/19 01:19:10;;;;;;;16.60;7.50;;;;;-6.12;98938.60;;;;111507;1242;41163;-60
2022/01/19 01:21:40;;;;;;;14.90;7.00;;;;;-6.14;98937.00;;;;111436;1244;41214;-59
2022/01/19 01:24:11;;;;;;;16.70;7.10;;;;;-6.20;98936.40;;;;111525;1243;41247;-58
2022/01/19 01:26:41;;;;;;;20.60;9.40;;;;;-6.10;98938.80;;;;111602;1244;41175;-57
2022/01/19 01:29:11;;;;;;;21.20;9.30;;;;;-6.18;98937.00;;;;111556;1241;41969;-57
2022/01/19 01:31:42;;;;;;;21.20;9.70;;;;;-6.20;98941.00;;;;111494;1241;41577;-58
2022/01/19 01:34:12;;;;;;;19.10;8.60;;;;;-6.20;98943.20;;;;111548;1243;41723;-58
2022/01/19 01:36:43;;;;;;;23.00;9.60;;;;;-6.20;98950.40;;;;111232;1244;41712;-59
2022/01/19 01:39:12;;;;;;;22.50;10.00;;;;;-6.30;98944.60;;;;111296;1243;41256;-60
2022/01/19 01:41:43;;;;;;;25.20;11.10;;;;;-6.30;98946.00;;;;111448;1244;41146;-59
2022/01/19 01:44:17;;;;;;;24.50;11.30;;;;;-6.40;98946.80;;;;111682;1243;41371;-58
2022/01/19 01:46:54;;;;;;;21.50;10.70;;;;;-6.40;98945.40;;;;111682;1241;41270;-59
2022/01/19 01:55:08;;;;;;;22.50;9.90;;;;;-6.60;98949.80;;;;111507;1243;41130;-58
2022/01/19 01:57:37;;;;;;;21.40;10.20;;;;;-6.70;98954.00;;;;111780;1241;41145;-59
2022/01/19 02:00:11;;;;;;;28.20;11.30;;;;;-6.70;98947.80;;;;111338;1242;41192;-58
2022/01/19 02:02:48;;;;;;;30.00;12.20;;;;;-6.80;98951.40;;;;111730;1241;41597;-61
2022/01/19 02:05:22;;;;;;;22.70;9.10;;;;;-6.80;98956.80;;;;111484;1242;41630;-59
2022/01/19 02:08:05;;;;;;;21.50;9.50;;;;;-6.88;98962.00;;;;111474;1243;41148;-60
2022/01/19 02:10:55;;;;;;;20.70;9.30;;;;;-6.90;98966.00;;;;111460;1244;41453;-59
2022/01/19 02:16:47;;;;;;;18.40;8.20;;;;;-6.90;98969.80;;;;111549;1243;41146;-59
2022/01/19 02:22:07;;;;;;;17.90;8.00;;;;;-7.00;98957.80;;;;111666;1243;41136;-60
2022/01/19 02:24:44;;;;;;;15.90;7.80;;;;;-7.00;98951.80;;;;111533;1244;41146;-60
2022/01/19 02:41:37;;;;;;;16.30;7.60;;;;;-7.10;98961.80;;;;111073;1247;41134;-60
2022/01/19 02:44:14;;;;;;;16.60;7.50;;;;;-7.10;98950.40;;;;111612;1242;41427;-61
2022/01/19 02:49:53;;;;;;;18.30;8.30;;;;;-7.12;98951.40;;;;111158;1244;41711;-61
2022/01/19 02:52:25;;;;;;;18.00;8.30;;;;;-7.20;98949.00;;;;111541;1243;41381;-61
2022/01/19 02:54:56;;;;;;;25.30;10.00;;;;;-7.20;98949.20;;;;111457;1244;41189;-61
2022/01/19 02:57:26;;;;;;;22.60;10.60;;;;;-7.30;98944.00;;;;111860;1241;41531;-61
2022/01/19 03:10:54;;;;;;;18.70;7.70;;;;;-7.50;98941.80;;;;111455;1243;41139;-61
2022/01/19 03:13:24;;;;;;;18.40;8.70;;;;;-7.60;98949.20;;;;111303;1244;41249;-60
2022/01/19 03:15:55;;;;;;;18.30;8.60;;;;;-7.60;98956.60;;;;111719;1242;41733;-61
2022/01/19 03:18:25;;;;;;;20.10;8.70;;;;;-7.60;98951.60;;;;111696;1242;41593;-62
2022/01/19 03:20:55;;;;;;;19.90;8.70;;;;;-7.60;98959.20;;;;111678;1242;42053;-60
2022/01/19 03:23:25;;;;;;;19.40;9.10;;;;;-7.60;98958.20;;;;111750;1241;41143;-60
2022/01/19 03:25:57;;;;;;;24.40;10.10;;;;;-7.60;98949.80;;;;111281;1241;41171;-61
2022/01/19 03:28:28;;;;;;;22.50;10.40;;;;;-7.70;98951.60;;;;111475;1243;42152;-60
2022/01/19 03:30:58;;;;;;;21.90;10.10;;;;;-7.70;98960.80;;;;111653;1241;41289;-60
2022/01/19 03:33:31;;;;;;;20.60;8.70;;;;;-7.78;98958.80;;;;111519;1242;41550;-61
2022/01/19 03:36:01;;;;;;;18.30;8.80;;;;;-7.80;98955.40;;;;111854;1241;41247;-61
2022/01/19 03:38:31;;;;;;;19.00;9.20;;;;;-7.86;98958.60;;;;111809;1244;41238;-60
2022/01/19 03:41:01;;;;;;;18.60;9.10;;;;;-7.90;98963.80;;;;111535;1243;41394;-61
2022/01/19 03:43:32;;;;;;;20.70;8.90;;;;;-7.94;98968.40;;;;111542;1243;41267;-60
2022/01/19 03:46:13;;;;;;;17.50;8.40;;;;;-8.00;98975.60;;;;111777;1241;41254;-61
2022/01/19 03:48:56;;;;;;;19.30;8.20;;;;;-8.00;98981.00;;;;111733;1242;41340;-60
2022/01/19 03:51:26;;;;;;;20.70;8.30;;;;;-8.00;98979.00;;;;111519;1243;41134;-60
2022/01/19 03:53:56;;;;;;;23.20;8.30;;;;;-8.00;98966.20;;;;111342;1244;42165;-60
2022/01/19 03:56:26;;;;;;;19.40;8.40;;;;;-8.00;98969.40;;;;111789;1243;41922;-60
2022/01/19 03:58:56;;;;;;;21.40;8.50;;;;;-7.94;98967.20;;;;111473;1241;41245;-60
2022/01/19 04:01:26;;;;;;;20.00;8.80;;;;;-7.90;98964.40;;;;111750;1243;41151;-58
2022/01/19 04:06:51;;;;;;;20.90;8.60;;;;;-7.98;98951.00;;;;111427;1243;41150;-59
2022/01/19 04:09:20;;;;;;;19.80;9.60;;;;;-8.00;98947.40;;;;111542;1243;42514;-61
2022/01/19 04:11:50;;;;;;;17.90;8.00;;;;;-8.02;98948.40;;;;111608;1242;42384;-59
2022/01/19 04:14:24;;;;;;;17.40;8.30;;;;;-8.10;98944.60;;;;111714;1242;41651;-59
2022/01/19 04:16:57;;;;;;;18.90;8.10;;;;;-8.10;98941.00;;;;111304;1244;41529;-58
2022/01/19 04:19:29;;;;;;;;;;;;;-8.10;98941.00;;;;111470;1243;41604;-60
2022/01/19 04:22:04;;;;;;;17.90;7.40;;;;;-8.10;98931.40;;;;111671;1243;41356;-60
2022/01/19 04:24:36;;;;;;;18.70;8.10;;;;;-8.10;98928.80;;;;111793;1241;41466;-59
2022/01/19 04:29:57;;;;;;;19.10;8.40;;;;;-8.10;98937.20;;;;111201;1246;41632;-58
2022/01/19 04:33:14;;;;;;;17.60;8.10;;;;;-8.20;98944.00;;;;111489;1244;41372;-60
2022/01/19 04:35:27;;;;;;;19.40;7.70;;;;;-8.22;98940.00;;;;111123;1245;41186;-58
2022/01/19 04:49:11;;;;;;;18.50;8.20;;;;;-8.50;98954.20;;;;111234;1245;41609;-59
2022/01/19 05:04:00;;;;;;;22.50;9.80;;;;;-8.60;98951.00;;;;111423;1244;41263;-59
2022/01/19 05:06:08;;;;;;;28.10;11.40;;;;;-8.58;98934.40;;;;111268;1244;41725;-60
2022/01/19 05:14:01;;;;;;;28.00;12.00;;;;;-8.40;98928.20;;;;111417;1243;41713;-60
2022/01/19 05:16:31;;;;;;;28.60;11.90;;;;;-8.40;98928.20;;;;111453;1244;41236;-58
2022/01/19 05:19:01;;;;;;;30.30;12.20;;;;;-8.30;98924.80;;;;111682;1243;41645;-58
2022/01/19 05:21:32;;;;;;;25.20;10.50;;;;;-8.30;98923.80;;;;111401;1244;41314;-59
2022/01/19 05:24:21;;;;;;;23.40;10.00;;;;;-8.30;98921.60;;;;111693;1243;41197;-60
2022/01/19 05:27:08;;;;;;;22.00;9.40;;;;;-8.30;98916.40;;;;111449;1243;41174;-60
2022/01/19 05:29:38;;;;;;;25.20;10.00;;;;;-8.30;98911.60;;;;111439;1244;41165;-60
2022/01/19 05:32:08;;;;;;;21.90;9.20;;;;;-8.30;98911.00;;;;111341;1243;41499;-60
2022/01/19 05:34:38;;;;;;;21.50;9.50;;;;;-8.24;98915.60;;;;111624;1243;41279;-58
2022/01/19 05:37:36;;;;;;;21.00;8.90;;;;;-8.20;98913.80;;;;111582;1244;41836;-60
2022/01/19 05:40:36;;;;;;;24.40;8.50;;;;;-8.20;98916.60;;;;111486;1243;41254;-60
2022/01/19 05:43:06;;;;;;;21.90;8.70;;;;;-8.20;98914.40;;;;111668;1241;42385;-59
2022/01/19 05:45:36;;;;;;;21.50;9.80;;;;;-8.18;98914.00;;;;111741;1242;41600;-59
2022/01/19 05:48:12;;;;;;;22.60;9.20;;;;;-8.12;98918.60;;;;111470;1241;41562;-61
2022/01/19 05:50:45;;;;;;;22.90;9.50;;;;;-8.10;98920.80;;;;111383;1244;41248;-58
2022/01/19 05:53:17;;;;;;;21.80;9.90;;;;;-8.20;98909.40;;;;111680;1242;42546;-59
2022/01/19 05:55:47;;;;;;;22.70;10.20;;;;;-8.20;98913.80;;;;111072;1245;41156;-61
2022/01/19 05:58:16;;;;;;;20.60;9.70;;;;;-8.20;98919.20;;;;111464;1243;42697;-59
2022/01/19 06:00:48;;;;;;;20.40;9.50;;;;;-8.20;98929.00;;;;111387;1243;42100;-61
2022/01/19 06:03:18;;;;;;;20.60;9.40;;;;;-8.20;98920.60;;;;111239;1245;41148;-60
2022/01/19 06:06:17;;;;;;;20.60;8.80;;;;;-8.20;98919.60;;;;111393;1244;41154;-60
2022/01/19 06:09:37;;;;;;;21.70;9.30;;;;;-8.10;98924.80;;;;110702;1249;41267;-57
2022/01/19 06:12:09;;;;;;;24.60;11.00;;;;;-8.10;98925.40;;;;111210;1245;41192;-61
2022/01/19 06:14:43;;;;;;;28.80;12.00;;;;;-8.00;98935.40;;;;111524;1244;41601;-61
2022/01/19 06:17:13;;;;;;;28.20;12.10;;;;;-8.00;98934.80;;;;111434;1243;41904;-61
2022/01/19 06:19:44;;;;;;;24.70;10.60;;;;;-7.92;98931.00;;;;111572;1241;41136;-61
2022/01/19 06:22:17;;;;;;;24.20;11.90;;;;;-7.90;98932.00;;;;111607;1243;41143;-60
2022/01/19 06:24:48;;;;;;;31.60;14.70;;;;;-7.90;98930.20;;;;111387;1244;41148;-61
2022/01/19 06:27:19;;;;;;;42.40;20.20;;;;;-7.90;98933.60;;;;111359;1244;41296;-61
2022/01/19 06:29:52;;;;;;;41.10;18.90;;;;;-7.90;98932.20;;;;111434;1243;41591;-60
2022/01/19 06:32:31;;;;;;;38.10;17.50;;;;;-7.96;98944.80;;;;111411;1244;40755;-60
2022/01/19 06:35:08;;;;;;;34.40;15.00;;;;;-8.00;98948.00;;;;111513;1243;41987;-60
2022/01/19 06:38:01;;;;;;;30.00;13.10;;;;;-8.00;98945.00;;;;111418;1243;41156;-60
2022/01/19 06:40:52;;;;;;;23.90;11.70;;;;;-8.00;98954.00;;;;111733;1241;41245;-60
2022/01/19 06:43:23;;;;;;;28.50;11.40;;;;;-8.00;98954.20;;;;111231;1244;41120;-60
2022/01/19 06:46:00;;;;;;;26.30;11.60;;;;;-8.00;98954.00;;;;111529;1244;41576;-61
2022/01/19 06:48:42;;;;;;;34.70;15.40;;;;;-8.00;98957.00;;;;111739;1244;41269;-60
2022/01/19 06:51:12;;;;;;;41.10;18.40;;;;;-7.90;98949.80;;;;111500;1244;41144;-59
2022/01/19 06:53:52;;;;;;;34.30;16.30;;;;;-7.80;98960.60;;;;111741;1241;41320;-61
2022/01/19 06:56:27;;;;;;;33.80;14.80;;;;;-7.70;98949.00;;;;111809;1241;41133;-61
2022/01/19 06:59:05;;;;;;;27.20;12.90;;;;;-7.60;98954.00;;;;111568;1242;41942;-58
2022/01/19 07:01:40;;;;;;;26.60;12.60;;;;;-7.40;98956.00;;;;111756;1241;41140;-61
2022/01/19 07:04:26;;;;;;;28.00;12.50;;;;;-7.30;98957.80;;;;111716;1242;41136;-59
2022/01/19 07:06:55;;;;;;;27.60;12.30;;;;;-7.10;98967.00;;;;111708;1241;41238;-60
2022/01/19 07:09:46;;;;;;;34.50;14.10;;;;;-6.90;98962.60;;;;111670;1243;41640;-62
2022/01/19 07:12:15;;;;;;;70.60;31.20;;;;;-6.70;98961.60;;;;111783;1241;41148;-62
2022/01/19 07:14:45;;;;;;;62.30;28.60;;;;;-6.60;98973.20;;;;111518;1242;42165;-60
2022/01/19 07:17:15;;;;;;;61.30;28.20;;;;;-6.42;98961.60;;;;111379;1244;41170;-62
2022/01/19 07:19:44;;;;;;;65.50;26.60;;;;;-6.30;98961.80;;;;111745;1241;41713;-60
2022/01/19 07:22:15;;;;;;;43.10;19.30;;;;;-6.04;98952.20;;;;111538;1244;41637;-61
2022/01/19 07:24:45;;;;;;;33.90;15.20;;;;;-5.76;98953.40;;;;111614;1244;41923;-60
2022/01/19 07:27:17;;;;;;;101.20;37.80;;;;;-5.46;98939.60;;;;111568;1244;41139;-60
2022/01/19 07:29:46;;;;;;;96.00;37.80;;;;;-5.12;98938.40;;;;111548;1243;41160;-61
2022/01/19 07:32:16;;;;;;;75.70;31.60;;;;;-4.80;98933.60;;;;111804;1241;41145;-59
2022/01/19 07:34:46;;;;;;;67.30;29.20;;;;;-4.50;98936.40;;;;111871;1241;41148;-61
2022/01/19 07:37:17;;;;;;;;;;;;;-4.24;98928.80;;;;111587;1244;41291;-60
2022/01/19 07:39:47;;;;;;;87.50;38.90;;;;;-4.00;98922.20;;;;111836;1241;41349;-62
2022/01/19 07:42:16;;;;;;;85.20;37.90;;;;;-3.70;98917.20;;;;111752;1241;41248;-60
2022/01/19 07:45:06;;;;;;;91.10;39.10;;;;;-3.34;98912.20;;;;111446;1244;41712;-60
2022/01/19 07:47:41;;;;;;;142.70;58.60;;;;;-3.10;98912.60;;;;111767;1244;41145;-58
2022/01/19 07:50:45;;;;;;;137.90;59.90;;;;;-2.90;98903.20;;;;110774;1249;41604;-61
2022/01/19 07:53:36;;;;;;;131.20;56.90;;;;;-2.66;98912.00;;;;111624;1243;41155;-60
2022/01/19 07:56:24;;;;;;;116.60;54.50;;;;;-2.60;98905.40;;;;111758;1243;41134;-62
2022/01/19 07:59:22;;;;;;;124.40;54.30;;;;;-2.40;98908.20;;;;111139;1241;41258;-61
2022/01/19 08:01:56;;;;;;;118.80;54.10;;;;;-2.00;98915.20;;;;111630;1241;42391;-60
2022/01/19 08:04:48;;;;;;;110.90;50.10;;;;;-1.56;98899.00;;;;111692;1241;42285;-60
2022/01/19 08:07:20;;;;;;;99.10;46.30;;;;;-1.32;98891.00;;;;111325;1244;41248;-62
2022/01/19 08:09:51;;;;;;;110.90;53.60;;;;;-1.10;98890.80;;;;111507;1242;41163;-59
2022/01/19 08:12:19;;;;;;;96.70;43.60;;;;;-0.76;98882.40;;;;111612;1243;42024;-59
2022/01/19 08:14:49;;;;;;;94.10;44.80;;;;;-0.42;98873.40;;;;111445;1244;41533;-60
2022/01/19 08:17:23;;;;;;;84.10;39.80;;;;;0.04;98863.00;;;;111683;1242;41206;-62
2022/01/19 08:19:55;;;;;;;94.70;43.90;;;;;1.08;98845.40;;;;111538;1243;41153;-62
2022/01/19 08:22:24;;;;;;;84.00;41.50;;;;;2.52;98848.60;;;;111378;1244;41251;-62
2022/01/19 08:25:12;;;;;;;90.60;41.90;;;;;4.56;98831.00;;;;111639;1243;41150;-57
2022/01/19 08:27:42;;;;;;;87.40;42.30;;;;;6.40;98819.80;;;;111556;1244;41143;-60
2022/01/19 08:30:14;;;;;;;84.60;43.60;;;;;8.14;98808.00;;;;111215;1244;41170;-59
2022/01/19 08:32:43;;;;;;;86.10;41.70;;;;;9.36;98803.60;;;;111658;1243;41115;-59
2022/01/19 08:35:19;;;;;;;89.40;42.50;;;;;10.38;98795.80;;;;111593;1243;41255;-61
2022/01/19 08:37:58;;;;;;;83.20;41.50;;;;;11.38;98789.80;;;;111693;1244;41889;-59
2022/01/19 08:40:29;;;;;;;85.40;38.70;;;;;10.70;98781.80;;;;111771;1242;41982;-60
2022/01/19 08:43:22;;;;;;;92.10;38.70;;;;;10.90;98808.60;;;;111570;1241;41881;-61
2022/01/19 08:45:53;;;;;;;80.20;37.30;;;;;11.02;98794.20;;;;111699;1244;41857;-60
2022/01/19 08:48:27;;;;;;;68.70;32.10;;;;;12.00;98796.40;;;;111528;1242;41709;-60
2022/01/19 08:51:19;;;;;;;46.40;23.60;;;;;13.20;98801.60;;;;111721;1242;41343;-60
2022/01/19 08:53:56;;;;;;;39.70;20.00;;;;;13.50;98810.00;;;;111815;1241;41365;-61
2022/01/19 08:56:34;;;;;;;33.60;16.20;;;;;12.52;98802.00;;;;111493;1244;41945;-60
2022/01/19 08:59:04;;;;;;;30.00;13.90;;;;;12.02;98812.20;;;;111547;1243;41996;-60
2022/01/19 09:01:33;;;;;;;27.80;14.10;;;;;11.40;98815.00;;;;111504;1243;344129;-59
2022/01/19 09:04:03;;;;;;;30.10;13.80;;;;;10.36;98814.80;;;;111815;1243;41149;-60
2022/01/19 09:06:32;;;;;;;25.30;12.80;;;;;9.44;98825.00;;;;111542;1244;41140;-59
2022/01/19 09:09:01;;;;;;;28.30;13.50;;;;;8.76;98814.40;;;;111777;1244;41593;-60
2022/01/19 09:11:31;;;;;;;24.60;13.50;;;;;8.40;98818.00;;;;111776;1243;41151;-59
2022/01/19 09:14:01;;;;;;;27.60;13.90;;;;;8.00;98811.60;;;;111516;1241;41169;-59
2022/01/19 09:16:30;;;;;;;30.40;14.60;;;;;8.20;98804.80;;;;111689;1244;41130;-59
2022/01/19 09:19:02;;;;;;;35.20;16.30;;;;;8.30;98813.40;;;;111581;1243;41259;-59
2022/01/19 09:21:31;;;;;;;25.60;11.30;;;;;8.52;98802.60;;;;111830;1241;41202;-61
2022/01/19 09:24:00;;;;;;;25.10;11.80;;;;;8.76;98795.80;;;;111546;1244;41558;-60
2022/01/19 09:26:30;;;;;;;28.00;13.50;;;;;9.32;98796.00;;;;111745;1242;41142;-59
2022/01/19 09:28:59;;;;;;;26.90;13.50;;;;;9.82;98791.80;;;;111726;1242;41204;-62
2022/01/19 09:31:38;;;;;;;26.60;12.10;;;;;9.90;98804.40;;;;111231;1244;41148;-61
2022/01/19 09:34:14;;;;;;;38.60;18.20;;;;;9.36;98808.40;;;;111484;1244;41160;-60
2022/01/19 09:36:45;;;;;;;32.60;16.20;;;;;8.78;98798.60;;;;111335;1244;41314;-60
2022/01/19 09:39:19;;;;;;;32.70;14.80;;;;;8.32;98798.40;;;;111416;1243;42026;-61
2022/01/19 09:41:56;;;;;;;25.50;12.20;;;;;7.82;98800.00;;;;111476;1241;41158;-62
2022/01/19 09:44:32;;;;;;;24.80;11.50;;;;;7.28;98802.20;;;;111274;1244;41490;-61
2022/01/19 09:47:02;;;;;;;25.90;10.90;;;;;6.74;98801.60;;;;111455;1244;41602;-60
2022/01/19 09:49:32;;;;;;;19.80;8.60;;;;;6.20;98797.80;;;;111717;1242;42069;-60
2022/01/19 09:52:03;;;;;;;20.60;9.60;;;;;5.82;98794.00;;;;111462;1244;41147;-61
2022/01/19 09:54:35;;;;;;;18.00;9.10;;;;;5.42;98798.00;;;;111461;1243;42396;-61
2022/01/19 09:57:06;;;;;;;19.50;9.40;;;;;5.02;98798.40;;;;111351;1243;42351;-61
2022/01/19 09:59:37;;;;;;;22.80;9.90;;;;;4.62;98798.80;;;;111728;1243;41138;-60
2022/01/19 10:02:09;;;;;;;24.50;10.40;;;;;4.18;98803.40;;;;111517;1243;41136;-61
2022/01/19 10:04:42;;;;;;;;;;;;;3.88;98808.00;;;;111497;1243;41147;-60
2022/01/19 10:07:17;;;;;;;22.70;10.20;;;;;3.46;98811.20;;;;111538;1244;41211;-61
2022/01/19 10:10:05;;;;;;;22.30;10.50;;;;;3.20;98806.40;;;;111520;1244;41248;-61
2022/01/19 10:18:29;;;;;;;26.70;12.30;;;;;2.52;98816.20;;;;111356;1244;41160;-62
2022/01/19 10:21:06;;;;;;;25.40;12.00;;;;;2.40;98817.60;;;;111387;1244;41139;-61
2022/01/19 10:23:44;;;;;;;24.60;11.00;;;;;2.40;98807.40;;;;111560;1244;41264;-62
2022/01/19 10:26:23;;;;;;;25.30;11.90;;;;;2.40;98805.60;;;;111377;1244;42661;-62
2022/01/19 10:28:57;;;;;;;25.70;12.30;;;;;2.50;98796.20;;;;111542;1244;41934;-61
2022/01/19 10:31:28;;;;;;;26.70;12.60;;;;;2.50;98792.40;;;;111536;1244;41260;-61
2022/01/19 10:34:22;;;;;;;27.10;12.80;;;;;2.50;98790.40;;;;111516;1243;41149;-61
2022/01/19 10:36:57;;;;;;;25.40;11.40;;;;;2.68;98788.60;;;;111631;1244;41145;-61
2022/01/19 10:39:41;;;;;;;26.80;11.70;;;;;2.80;98784.60;;;;111687;1244;41146;-61
2022/01/19 10:42:15;;;;;;;24.80;10.70;;;;;3.02;98774.20;;;;111476;1244;41150;-61
2022/01/19 10:45:06;;;;;;;27.10;11.00;;;;;3.32;98774.80;;;;111379;1244;41165;-61
2022/01/19 10:47:40;;;;;;;23.20;10.80;;;;;3.86;98769.00;;;;111340;1244;41151;-58
2022/01/19 10:50:13;;;;;;;29.30;12.80;;;;;4.62;98766.80;;;;111647;1242;41145;-59
2022/01/19 10:52:44;;;;;;;27.50;13.50;;;;;6.02;98736.20;;;;111754;1244;41341;-61
2022/01/19 10:55:27;;;;;;;30.40;14.00;;;;;8.90;98709.60;;;;111341;1244;41254;-60
2022/01/19 10:57:59;;;;;;;26.00;13.80;;;;;12.58;98702.40;;;;111486;1244;41988;-61
2022/01/19 11:00:33;;;;;;;24.10;12.10;;;;;15.02;98696.80;;;;111256;1244;41599;-60
2022/01/19 11:03:21;;;;;;;26.90;11.90;;;;;16.62;98682.40;;;;111448;1244;41152;-61
2022/01/19 11:05:54;;;;;;;23.10;11.10;;;;;18.62;98672.40;;;;111459;1244;41358;-59
2022/01/19 11:08:28;;;;;;;22.40;11.30;;;;;19.92;98656.40;;;;111495;1244;41640;-61
2022/01/19 11:11:01;;;;;;;19.50;9.60;;;;;20.90;98663.40;;;;111418;1244;41138;-60
2022/01/19 11:13:40;;;;;;;18.90;9.00;;;;;21.74;98653.00;;;;111416;1244;41129;-62
2022/01/19 11:16:11;;;;;;;18.70;8.70;;;;;22.10;98656.20;;;;111575;1244;41144;-61
2022/01/19 11:18:44;;;;;;;18.10;8.30;;;;;22.12;98633.80;;;;111201;1244;41213;-61
2022/01/19 11:21:20;;;;;;;17.30;8.70;;;;;23.00;98626.20;;;;111501;1244;41005;-60
2022/01/19 11:24:05;;;;;;;18.30;8.50;;;;;22.72;98636.00;;;;111203;1244;41255;-58
2022/01/19 11:26:37;;;;;;;16.40;7.60;;;;;22.70;98635.20;;;;111739;1241;41144;-60
2022/01/19 11:29:24;;;;;;;15.70;7.50;;;;;22.24;98635.60;;;;111497;1243;41307;-61
2022/01/19 11:31:56;;;;;;;14.90;7.50;;;;;20.94;98635.40;;;;111476;1244;41218;-60
2022/01/19 11:34:40;;;;;;;16.30;7.30;;;;;19.94;98634.20;;;;111519;1244;41260;-60
2022/01/19 11:37:12;;;;;;;15.50;7.50;;;;;19.40;98638.00;;;;111467;1244;41195;-62
2022/01/19 11:40:00;;;;;;;16.20;7.70;;;;;18.74;98634.40;;;;111253;1244;41273;-60
2022/01/19 11:42:30;;;;;;;17.30;7.60;;;;;17.72;98626.80;;;;111474;1244;41215;-60
2022/01/19 11:45:01;;;;;;;16.20;7.30;;;;;17.20;98622.60;;;;111545;1244;41146;-61
2022/01/19 11:47:31;;;;;;;19.70;8.20;;;;;17.04;98626.80;;;;111593;1244;41722;-60
2022/01/19 11:50:05;;;;;;;16.10;8.90;;;;;16.26;98628.00;;;;111521;1244;41296;-60
2022/01/19 11:52:37;;;;;;;19.90;8.80;;;;;16.20;98610.60;;;;111766;1244;41144;-59
2022/01/19 11:55:15;;;;;;;18.10;8.50;;;;;17.42;98612.60;;;;111765;1244;41263;-60
2022/01/19 11:57:50;;;;;;;18.20;8.80;;;;;18.36;98594.40;;;;111772;1243;41131;-61
2022/01/19 12:00:24;;;;;;;17.00;8.20;;;;;19.72;98597.00;;;;111531;1244;41713;-60
2022/01/19 12:02:57;;;;;;;16.70;8.00;;;;;20.40;98595.00;;;;111382;1244;41488;-60
2022/01/19 12:05:51;;;;;;;18.70;8.80;;;;;20.86;98589.40;;;;111252;1244;41144;-60
2022/01/19 12:08:33;;;;;;;16.90;8.20;;;;;21.82;98592.80;;;;111375;1244;41542;-61
2022/01/19 12:11:13;;;;;;;22.00;8.10;;;;;21.54;98597.20;;;;111811;1244;41244;-60
2022/01/19 12:16:32;;;;;;;16.20;8.30;;;;;22.78;98576.40;;;;111507;1244;41333;-62
2022/01/19 12:19:07;;;;;;;17.10;8.60;;;;;24.26;98568.60;;;;111507;1244;42175;-61
2022/01/19 12:22:05;;;;;;;19.20;8.70;;;;;25.78;98568.00;;;;111557;1244;41142;-63
2022/01/19 12:24:44;;;;;;;16.70;8.20;;;;;27.10;98562.00;;;;111497;1244;41140;-60
2022/01/19 12:27:17;;;;;;;20.80;7.80;;;;;27.86;98557.80;;;;111744;1241;41121;-61
2022/01/19 12:29:59;;;;;;;17.20;8.60;;;;;28.52;98561.80;;;;111523;1244;41181;-59
2022/01/19 12:32:40;;;;;;;17.40;8.20;;;;;28.80;98560.60;;;;111795;1244;41370;-62
2022/01/19 12:35:12;;;;;;;15.70;7.60;;;;;28.60;98555.40;;;;111475;1244;41947;-61
2022/01/19 12:37:47;;;;;;;15.50;7.70;;;;;28.60;98558.80;;;;111361;1244;42059;-62
2022/01/19 12:40:21;;;;;;;15.30;7.30;;;;;28.88;98554.00;;;;111551;1244;41912;-63
2022/01/19 12:42:57;;;;;;;17.60;7.80;;;;;29.00;98558.00;;;;111519;1244;41289;-60
2022/01/19 12:45:43;;;;;;;14.10;6.70;;;;;29.12;98557.00;;;;111485;1241;41865;-63
2022/01/19 12:48:13;;;;;;;15.40;6.70;;;;;29.22;98549.00;;;;111355;1244;41144;-60
2022/01/19 12:50:47;;;;;;;15.60;7.10;;;;;29.56;98546.00;;;;111573;1244;41156;-60
2022/01/19 12:53:23;;;;;;;14.50;7.00;;;;;29.70;98542.00;;;;111431;1245;42681;-59
2022/01/19 12:56:03;;;;;;;15.80;7.00;;;;;29.50;98542.40;;;;111732;1241;41679;-62
2022/01/19 12:58:37;;;;;;;16.10;7.30;;;;;29.08;98541.20;;;;111776;1244;41148;-60
2022/01/19 13:01:09;;;;;;;16.30;7.00;;;;;28.58;98544.60;;;;111513;1244;41264;-61
2022/01/19 13:03:43;;;;;;;14.60;7.50;;;;;28.14;98537.80;;;;111740;1241;41176;-60
2022/01/19 13:06:14;;;;;;;17.40;7.90;;;;;27.82;98534.80;;;;111769;1244;41188;-61
2022/01/19 13:09:04;;;;;;;13.60;7.10;;;;;27.28;98540.80;;;;111765;1241;41691;-60
2022/01/19 13:11:46;;;;;;;16.90;8.10;;;;;26.70;98538.80;;;;111469;1245;41310;-61
2022/01/19 13:14:17;;;;;;;16.10;7.90;;;;;26.50;98530.00;;;;111724;1244;41953;-60
2022/01/19 13:16:49;;;;;;;16.20;7.90;;;;;26.60;98534.00;;;;111726;1242;41581;-62
2022/01/19 13:19:28;;;;;;;13.20;6.80;;;;;26.56;98528.80;;;;111331;1247;41204;-61
2022/01/19 13:22:01;;;;;;;13.40;6.40;;;;;26.60;98528.80;;;;111489;1244;41256;-60
2022/01/19 13:24:36;;;;;;;13.60;7.10;;;;;26.42;98528.40;;;;111250;1244;41138;-61
2022/01/19 13:27:10;;;;;;;14.90;7.20;;;;;26.30;98532.20;;;;111526;1244;41124;-61
2022/01/19 13:29:42;;;;;;;18.00;7.20;;;;;26.20;98528.60;;;;111445;1244;41251;-61
2022/01/19 13:32:21;;;;;;;16.70;7.80;;;;;26.10;98525.80;;;;111352;1244;41158;-61
2022/01/19 13:35:08;;;;;;;16.90;7.50;;;;;25.90;98522.60;;;;111497;1244;41233;-61
2022/01/19 13:37:46;;;;;;;17.00;7.50;;;;;25.68;98518.80;;;;111329;1244;41604;-60
2022/01/19 13:40:19;;;;;;;15.70;6.80;;;;;25.32;98512.60;;;;111358;1244;41924;-64
2022/01/19 13:42:52;;;;;;;19.70;7.70;;;;;25.10;98510.60;;;;111348;1244;41252;-60
2022/01/19 13:45:31;;;;;;;15.20;7.30;;;;;24.88;98519.40;;;;111464;1244;41148;-61
2022/01/19 13:50:54;;;;;;;16.40;7.80;;;;;24.30;98519.00;;;;111416;1245;41782;-61
2022/01/19 13:53:34;;;;;;;15.10;7.20;;;;;24.00;98521.80;;;;111530;1244;41251;-61
2022/01/19 13:56:06;;;;;;;17.40;8.90;;;;;23.70;98520.60;;;;111307;1245;41630;-61
2022/01/19 13:58:43;;;;;;;17.60;8.00;;;;;23.22;98519.60;;;;111252;1244;41171;-61
2022/01/19 14:01:19;;;;;;;16.60;8.40;;;;;22.62;98523.20;;;;111424;1244;41417;-60
2022/01/19 14:03:58;;;;;;;20.00;9.90;;;;;22.18;98519.00;;;;111443;1244;41254;-60